Time;durP1;ratioP1;P1;durP2;ratioP2;P2;SDS_P1;SDS_P2;PMS_P1;PMS_P2;Temp;Humidity;BMP_temperature;BMP_pressure;BME280_temperature;BME280_humidity;BME280_pressure;Samples;Min_cycle;Max_cycle;Signal;HPM_P1;HPM_P2
2022/10/30 00:01:00;;;;;;;13.52;7.00;;;16.30;99.90;;;;;;5018834;28;20032;-64
2022/10/30 00:03:26;;;;;;;13.45;7.55;;;16.20;99.90;;;;;;5022562;28;20124;-64
2022/10/30 00:05:51;;;;;;;12.13;6.35;;;16.20;99.90;;;;;;5017506;28;20079;-64
2022/10/30 00:08:20;;;;;;;11.45;7.32;;;16.20;99.90;;;;;;5017187;28;20021;-64
2022/10/30 00:10:46;;;;;;;13.40;7.57;;;16.20;99.90;;;;;;5019733;28;20034;-64
2022/10/30 00:13:13;;;;;;;14.80;7.68;;;16.10;99.90;;;;;;5021353;28;20021;-64
2022/10/30 00:15:38;;;;;;;19.00;7.97;;;16.10;99.90;;;;;;5024830;28;20033;-64
2022/10/30 00:18:04;;;;;;;11.45;6.90;;;16.10;99.90;;;;;;5023337;28;20026;-64
2022/10/30 00:20:30;;;;;;;14.77;8.25;;;16.00;99.90;;;;;;5028480;28;20055;-64
2022/10/30 00:22:55;;;;;;;16.52;7.57;;;16.00;99.90;;;;;;5039757;28;20117;-64
2022/10/30 00:25:21;;;;;;;10.45;6.43;;;16.00;99.90;;;;;;5032081;28;20688;-64
2022/10/30 00:27:46;;;;;;;11.38;6.40;;;16.00;99.90;;;;;;5023202;28;20104;-64
2022/10/30 00:30:14;;;;;;;15.15;7.15;;;16.00;99.90;;;;;;5039153;28;20053;-64
2022/10/30 00:32:40;;;;;;;15.05;7.50;;;16.00;99.90;;;;;;5024340;28;20497;-64
2022/10/30 00:35:05;;;;;;;15.27;7.20;;;15.90;99.90;;;;;;5021429;28;20033;-64
2022/10/30 00:37:31;;;;;;;15.25;7.68;;;15.90;99.90;;;;;;5024670;28;20037;-64
2022/10/30 00:39:56;;;;;;;14.93;7.93;;;15.90;99.90;;;;;;5028323;28;20025;-64
2022/10/30 00:42:27;;;;;;;12.50;7.25;;;15.90;99.90;;;;;;5027499;28;20024;-64
2022/10/30 00:44:53;;;;;;;14.07;7.05;;;15.90;99.90;;;;;;5026110;28;20049;-64
2022/10/30 00:47:36;;;;;;;9.82;6.55;;;15.80;99.90;;;;;;5015431;28;20076;-64
2022/10/30 00:50:12;;;;;;;14.07;7.57;;;15.80;99.90;;;;;;5027716;28;20069;-64
2022/10/30 00:52:43;;;;;;;10.95;7.43;;;15.80;99.90;;;;;;5026067;28;20026;-64
2022/10/30 00:55:24;;;;;;;11.45;6.95;;;15.80;99.90;;;;;;5023449;28;20073;-64
2022/10/30 00:57:52;;;;;;;14.25;7.55;;;15.70;99.90;;;;;;5027738;28;20108;-64
2022/10/30 01:00:20;;;;;;;11.52;6.65;;;15.70;99.90;;;;;;5020417;28;20539;-64
2022/10/30 01:02:46;;;;;;;14.50;7.35;;;15.60;99.90;;;;;;5017911;28;20029;-64
2022/10/30 01:05:15;;;;;;;17.08;7.80;;;15.60;99.90;;;;;;5026981;28;20029;-64
2022/10/30 01:07:41;;;;;;;16.08;7.20;;;15.60;99.90;;;;;;5029223;28;20437;-64
2022/10/30 01:10:07;;;;;;;13.38;7.65;;;15.50;99.90;;;;;;5027915;28;20547;-64
2022/10/30 01:12:33;;;;;;;13.38;6.93;;;15.60;99.90;;;;;;5022599;28;20037;-64
2022/10/30 01:15:00;;;;;;;16.50;6.95;;;15.50;99.90;;;;;;5023218;28;20029;-64
2022/10/30 01:17:58;;;;;;;9.98;5.97;;;15.50;99.90;;;;;;5022882;28;20509;-64
2022/10/30 01:21:07;;;;;;;13.02;7.13;;;15.60;99.90;;;;;;5027799;28;20052;-64
2022/10/30 01:23:46;;;;;;;11.65;6.50;;;15.60;99.90;;;;;;5036835;28;20072;-64
2022/10/30 01:26:31;;;;;;;11.32;7.25;;;15.50;99.90;;;;;;5028896;28;20536;-64
2022/10/30 01:29:22;;;;;;;10.32;5.80;;;15.50;99.90;;;;;;5030962;28;20040;-64
2022/10/30 01:32:07;;;;;;;9.23;5.70;;;15.60;99.90;;;;;;5017535;28;20033;-64
2022/10/30 01:34:47;;;;;;;10.43;5.38;;;15.60;99.90;;;;;;5024153;28;20025;-64
2022/10/30 01:37:24;;;;;;;10.60;6.30;;;15.60;99.90;;;;;;5019147;28;20036;-64
2022/10/30 01:39:49;;;;;;;11.82;6.68;;;15.60;99.90;;;;;;5017993;28;20026;-64
2022/10/30 01:42:48;;;;;;;9.55;5.93;;;15.60;99.90;;;;;;5023563;28;20028;-64
2022/10/30 01:45:39;;;;;;;7.70;4.93;;;15.60;99.90;;;;;;5022584;28;20057;-64
2022/10/30 01:48:36;;;;;;;11.18;6.13;;;15.60;99.90;;;;;;5025697;28;20026;-64
2022/10/30 01:51:36;;;;;;;10.75;6.07;;;15.60;99.90;;;;;;5021686;28;20025;-64
2022/10/30 01:54:18;;;;;;;10.07;5.45;;;15.50;99.90;;;;;;5015068;28;20638;-64
2022/10/30 01:57:08;;;;;;;8.20;5.13;;;15.50;99.90;;;;;;5027645;28;20359;-64
2022/10/30 02:00:00;;;;;;;10.07;6.40;;;15.50;99.90;;;;;;5022310;28;20026;-64
2022/10/30 02:02:26;;;;;;;9.95;6.38;;;15.50;99.90;;;;;;5031180;28;20034;-64
2022/10/30 02:04:51;;;;;;;12.63;6.53;;;15.40;99.90;;;;;;5018068;28;20045;-64
2022/10/30 02:07:17;;;;;;;13.00;6.65;;;15.40;99.90;;;;;;5029091;28;20061;-64
2022/10/30 02:09:45;;;;;;;8.95;5.95;;;15.40;99.90;;;;;;5029565;28;20455;-64
2022/10/30 02:12:11;;;;;;;10.07;6.93;;;15.40;99.90;;;;;;5022760;28;20108;-64
2022/10/30 02:14:42;;;;;;;11.05;6.63;;;15.30;99.90;;;;;;5026126;28;20052;-64
2022/10/30 02:17:08;;;;;;;10.65;6.30;;;15.30;99.90;;;;;;5016450;28;20550;-64
2022/10/30 02:19:34;;;;;;;9.52;5.63;;;15.30;99.90;;;;;;5026833;28;20026;-64
2022/10/30 02:22:00;;;;;;;11.40;5.80;;;15.30;99.90;;;;;;5026419;28;20567;-64
2022/10/30 02:24:26;;;;;;;9.57;5.20;;;15.30;99.90;;;;;;5024066;28;20032;-64
2022/10/30 02:26:51;;;;;;;9.50;5.70;;;15.30;99.90;;;;;;5028516;28;20047;-64
2022/10/30 02:29:19;;;;;;;8.90;5.63;;;15.20;99.90;;;;;;5021737;28;20675;-64
2022/10/30 02:31:45;;;;;;;9.60;5.35;;;15.20;99.90;;;;;;5026073;28;20034;-64
2022/10/30 02:34:10;;;;;;;8.40;5.43;;;15.20;99.90;;;;;;5019179;28;20036;-64
2022/10/30 02:36:36;;;;;;;10.60;6.40;;;15.20;99.90;;;;;;5028016;28;20120;-64
2022/10/30 02:39:02;;;;;;;9.43;6.22;;;15.20;99.90;;;;;;5020213;28;20029;-65
2022/10/30 02:41:28;;;;;;;7.95;5.50;;;15.20;99.90;;;;;;5026181;28;20371;-64
2022/10/30 02:43:54;;;;;;;11.13;6.28;;;15.20;99.90;;;;;;5021248;28;20024;-64
2022/10/30 02:46:20;;;;;;;9.27;5.47;;;15.20;99.90;;;;;;5023273;28;20505;-64
2022/10/30 02:48:45;;;;;;;7.97;5.40;;;15.20;99.90;;;;;;5020337;28;20030;-64
2022/10/30 02:51:11;;;;;;;13.32;6.00;;;15.30;99.90;;;;;;5021663;28;20482;-64
2022/10/30 02:53:37;;;;;;;10.10;6.20;;;15.30;99.90;;;;;;5024015;28;20044;-64
2022/10/30 02:56:04;;;;;;;11.13;7.13;;;15.20;99.90;;;;;;5026883;28;21580;-64
2022/10/30 02:58:30;;;;;;;10.52;6.55;;;15.20;99.90;;;;;;5023096;28;20022;-64
2022/10/30 03:00:56;;;;;;;8.27;5.57;;;15.20;99.90;;;;;;5019214;28;20036;-64
2022/10/30 03:03:21;;;;;;;10.23;6.60;;;15.20;99.90;;;;;;5022339;28;20507;-64
2022/10/30 03:05:47;;;;;;;12.93;5.68;;;15.10;99.90;;;;;;5022862;28;20028;-64
2022/10/30 03:08:12;;;;;;;9.85;5.80;;;15.20;99.90;;;;;;5020421;28;20036;-64
2022/10/30 03:10:38;;;;;;;9.27;6.30;;;15.10;99.90;;;;;;5038104;28;20083;-64
2022/10/30 03:13:03;;;;;;;10.45;7.18;;;15.10;99.90;;;;;;5019585;28;20021;-64
2022/10/30 03:15:29;;;;;;;12.90;7.30;;;15.10;99.90;;;;;;5023669;28;20099;-64
2022/10/30 03:17:54;;;;;;;11.02;7.30;;;15.10;99.90;;;;;;5028094;28;20065;-64
2022/10/30 03:20:20;;;;;;;11.35;6.93;;;15.00;99.90;;;;;;5026740;28;20024;-64
2022/10/30 03:22:45;;;;;;;13.35;7.22;;;15.00;99.90;;;;;;5024023;28;20535;-64
2022/10/30 03:25:11;;;;;;;14.38;8.82;;;14.90;99.90;;;;;;5022677;28;20109;-64
2022/10/30 03:27:37;;;;;;;10.93;7.32;;;14.90;99.90;;;;;;5016428;28;20490;-64
2022/10/30 03:30:02;;;;;;;13.45;6.57;;;14.90;99.90;;;;;;5019705;28;20421;-64
2022/10/30 03:32:28;;;;;;;12.35;7.13;;;14.80;99.90;;;;;;5027228;28;20034;-64
2022/10/30 03:34:53;;;;;;;15.57;6.60;;;14.80;99.90;;;;;;5026965;28;20568;-64
2022/10/30 03:37:19;;;;;;;9.48;6.18;;;14.80;99.90;;;;;;5029837;28;20026;-64
2022/10/30 03:39:45;;;;;;;11.63;6.93;;;14.90;99.90;;;;;;5026064;28;20112;-64
2022/10/30 03:42:10;;;;;;;12.50;7.53;;;14.90;99.90;;;;;;5023373;28;20101;-64
2022/10/30 03:44:36;;;;;;;11.77;6.55;;;14.90;99.90;;;;;;5025337;28;20057;-64
2022/10/30 03:47:01;;;;;;;11.27;6.63;;;14.90;99.90;;;;;;5028756;28;20033;-64
2022/10/30 03:49:26;;;;;;;11.93;6.78;;;14.90;99.90;;;;;;5028430;28;20436;-64
2022/10/30 03:51:52;;;;;;;9.10;6.07;;;14.90;99.90;;;;;;5025825;28;20040;-64
2022/10/30 03:54:17;;;;;;;11.23;7.13;;;14.90;99.90;;;;;;5025404;28;20029;-64
2022/10/30 03:56:44;;;;;;;11.63;6.40;;;14.90;99.90;;;;;;5027433;28;20500;-64
2022/10/30 03:59:09;;;;;;;13.77;5.85;;;14.90;99.90;;;;;;5028699;28;20017;-64
2022/10/30 04:01:35;;;;;;;8.55;5.75;;;14.90;99.90;;;;;;5026014;28;20076;-64
2022/10/30 04:04:00;;;;;;;9.13;5.93;;;14.90;99.90;;;;;;5028497;28;20397;-64
2022/10/30 04:06:26;;;;;;;10.88;6.75;;;14.90;99.90;;;;;;5023156;28;20065;-64
2022/10/30 04:08:53;;;;;;;12.85;7.43;;;14.80;99.90;;;;;;5024933;28;20022;-64
2022/10/30 04:11:19;;;;;;;12.70;7.18;;;14.80;99.90;;;;;;5035308;28;20057;-64
2022/10/30 04:13:44;;;;;;;11.25;7.28;;;14.70;99.90;;;;;;5027294;28;20462;-64
2022/10/30 04:16:10;;;;;;;11.60;7.10;;;14.70;99.90;;;;;;5028370;28;20033;-64
2022/10/30 04:18:35;;;;;;;9.88;5.85;;;14.70;99.90;;;;;;5028446;28;20025;-64
2022/10/30 04:21:01;;;;;;;9.38;6.75;;;14.70;99.90;;;;;;5028184;28;20018;-64
2022/10/30 04:23:27;;;;;;;10.93;7.60;;;14.70;99.90;;;;;;5028149;28;20366;-63
2022/10/30 04:25:52;;;;;;;11.98;7.53;;;14.60;99.90;;;;;;5028231;28;20064;-64
2022/10/30 04:28:20;;;;;;;11.13;7.32;;;14.50;99.90;;;;;;5026959;28;20068;-64
2022/10/30 04:30:46;;;;;;;10.10;6.13;;;14.50;99.90;;;;;;5028015;28;20014;-63
2022/10/30 04:33:12;;;;;;;14.63;6.93;;;14.50;99.90;;;;;;5028286;28;20022;-64
2022/10/30 04:35:38;;;;;;;12.65;6.38;;;14.50;99.90;;;;;;5026963;28;20722;-64
2022/10/30 04:38:13;;;;;;;8.90;6.72;;;14.40;99.90;;;;;;5028153;28;20041;-63
2022/10/30 04:40:41;;;;;;;8.70;6.35;;;14.50;99.90;;;;;;5028477;28;20026;-64
2022/10/30 04:43:08;;;;;;;10.50;6.55;;;14.50;99.90;;;;;;5028090;28;20025;-64
2022/10/30 04:45:34;;;;;;;11.43;6.05;;;14.50;99.90;;;;;;5027997;28;20045;-64
2022/10/30 04:48:05;;;;;;;13.50;7.35;;;14.50;99.90;;;;;;5026863;28;20025;-63
2022/10/30 04:50:31;;;;;;;14.02;8.25;;;14.50;99.90;;;;;;5028241;28;20068;-64
2022/10/30 04:53:02;;;;;;;16.77;8.68;;;14.50;99.90;;;;;;5028278;28;20049;-64
2022/10/30 04:55:28;;;;;;;14.25;7.82;;;14.40;99.90;;;;;;5021233;28;20393;-64
2022/10/30 04:57:58;;;;;;;11.57;7.95;;;14.40;99.90;;;;;;5031659;28;20024;-64
2022/10/30 05:00:25;;;;;;;11.05;7.75;;;14.30;99.90;;;;;;5031719;28;20022;-63
2022/10/30 05:02:51;;;;;;;13.77;8.25;;;14.40;99.90;;;;;;5031599;28;20026;-64
2022/10/30 05:05:17;;;;;;;13.52;8.35;;;14.40;99.90;;;;;;5031347;28;20022;-63
2022/10/30 05:07:42;;;;;;;15.02;8.23;;;14.30;99.90;;;;;;5029751;28;20037;-63
2022/10/30 05:10:13;;;;;;;14.48;8.85;;;14.30;99.90;;;;;;5030799;28;20036;-64
2022/10/30 05:12:40;;;;;;;16.35;8.45;;;14.30;99.90;;;;;;5031680;28;20037;-64
2022/10/30 05:15:06;;;;;;;11.48;7.75;;;14.30;99.90;;;;;;5031045;28;20021;-64
2022/10/30 05:17:32;;;;;;;12.90;8.25;;;14.30;99.90;;;;;;5030956;28;20126;-63
2022/10/30 05:19:57;;;;;;;12.80;7.90;;;14.30;99.90;;;;;;5026774;28;20096;-64
2022/10/30 05:22:23;;;;;;;14.88;7.40;;;14.30;99.90;;;;;;5028837;28;20014;-64
2022/10/30 05:24:48;;;;;;;11.98;6.82;;;14.20;99.90;;;;;;5030884;28;20563;-64
2022/10/30 05:27:14;;;;;;;12.50;6.45;;;14.30;99.90;;;;;;5028763;28;20036;-63
2022/10/30 05:29:40;;;;;;;9.60;6.90;;;14.30;99.90;;;;;;5030914;28;20044;-64
2022/10/30 05:32:05;;;;;;;11.13;6.75;;;14.30;99.90;;;;;;5031086;28;20041;-64
2022/10/30 05:34:31;;;;;;;11.55;5.35;;;14.30;99.90;;;;;;5027819;28;20561;-64
2022/10/30 05:36:56;;;;;;;8.68;5.15;;;14.30;99.90;;;;;;5026915;28;20156;-64
2022/10/30 05:39:22;;;;;;;10.80;5.50;;;14.30;99.90;;;;;;5028304;28;20099;-64
2022/10/30 05:41:47;;;;;;;10.55;5.30;;;14.30;99.90;;;;;;5030746;28;20064;-64
2022/10/30 05:44:13;;;;;;;8.40;4.80;;;14.30;99.90;;;;;;5030562;28;20192;-63
2022/10/30 05:46:38;;;;;;;9.38;5.72;;;14.30;99.90;;;;;;5029065;28;20459;-64
2022/10/30 05:49:06;;;;;;;8.60;6.03;;;14.30;99.90;;;;;;5028102;28;20029;-64
2022/10/30 05:51:32;;;;;;;7.90;5.28;;;14.20;99.90;;;;;;5027882;28;20029;-64
2022/10/30 05:53:57;;;;;;;8.27;5.70;;;14.20;99.90;;;;;;5027867;28;20029;-64
2022/10/30 05:56:23;;;;;;;8.40;5.68;;;14.20;99.90;;;;;;5030253;28;20033;-64
2022/10/30 05:58:49;;;;;;;10.35;5.47;;;14.20;99.90;;;;;;5030368;28;20167;-64
2022/10/30 06:01:14;;;;;;;12.48;5.25;;;14.20;99.90;;;;;;5027758;28;20036;-63
2022/10/30 06:03:40;;;;;;;9.38;5.25;;;14.10;99.90;;;;;;5030394;28;20025;-63
2022/10/30 06:06:06;;;;;;;9.52;5.95;;;14.20;99.90;;;;;;5025480;28;20036;-64
2022/10/30 06:08:31;;;;;;;10.70;6.07;;;14.10;99.90;;;;;;5025187;28;20033;-63
2022/10/30 06:10:57;;;;;;;7.25;5.35;;;14.10;99.90;;;;;;5030186;28;20461;-64
2022/10/30 06:13:22;;;;;;;10.63;5.45;;;14.10;99.90;;;;;;5027503;28;20049;-63
2022/10/30 06:15:48;;;;;;;9.25;5.05;;;14.00;99.90;;;;;;5027392;28;20025;-64
2022/10/30 06:18:14;;;;;;;9.57;5.22;;;14.00;99.90;;;;;;5030053;28;20021;-64
2022/10/30 06:20:39;;;;;;;8.18;5.00;;;14.00;99.90;;;;;;5030720;28;20473;-63
2022/10/30 06:23:07;;;;;;;9.65;5.07;;;13.90;99.90;;;;;;5030543;28;20037;-64
2022/10/30 06:25:34;;;;;;;8.38;5.50;;;13.90;99.90;;;;;;5024192;28;20021;-64
2022/10/30 06:28:00;;;;;;;9.70;5.10;;;13.90;99.90;;;;;;5031565;28;20021;-64
2022/10/30 06:30:26;;;;;;;6.85;5.28;;;13.80;99.90;;;;;;5048655;28;20120;-63
2022/10/30 06:32:59;;;;;;;7.57;3.95;;;13.80;99.90;;;;;;5032870;28;20108;-64
2022/10/30 06:35:25;;;;;;;7.32;4.30;;;13.80;99.90;;;;;;5033258;28;20018;-64
2022/10/30 06:37:53;;;;;;;6.45;4.30;;;13.70;99.90;;;;;;5032490;28;20028;-64
2022/10/30 06:40:19;;;;;;;5.88;4.70;;;13.70;99.90;;;;;;5032864;28;20105;-63
2022/10/30 06:42:46;;;;;;;7.03;4.43;;;13.70;99.90;;;;;;5015379;28;20025;-64
2022/10/30 06:45:12;;;;;;;8.55;5.07;;;13.70;99.90;;;;;;5026938;28;20099;-63
2022/10/30 06:47:38;;;;;;;7.13;5.00;;;13.70;99.90;;;;;;5033248;28;20026;-64
2022/10/30 06:50:05;;;;;;;7.50;5.07;;;13.70;99.90;;;;;;5033073;28;20026;-63
2022/10/30 06:52:31;;;;;;;6.20;4.15;;;13.70;99.90;;;;;;5018919;28;20074;-63
2022/10/30 06:54:57;;;;;;;12.43;8.20;;;13.70;99.90;;;;;;5032892;28;20029;-63
2022/10/30 06:57:22;;;;;;;15.65;9.23;;;13.60;99.90;;;;;;5032938;28;20017;-63
2022/10/30 06:59:48;;;;;;;13.80;9.65;;;13.50;99.90;;;;;;5033042;28;20033;-63
2022/10/30 07:02:13;;;;;;;14.80;9.45;;;13.50;99.90;;;;;;5032879;28;20056;-64
2022/10/30 07:04:39;;;;;;;13.73;9.32;;;13.40;99.90;;;;;;5030615;28;20025;-63
2022/10/30 07:07:04;;;;;;;12.43;8.90;;;13.40;99.90;;;;;;5027829;28;20030;-63
2022/10/30 07:09:30;;;;;;;15.25;9.77;;;13.40;99.90;;;;;;5016358;28;20572;-63
2022/10/30 07:11:55;;;;;;;14.60;7.95;;;13.40;99.90;;;;;;5014994;28;20547;-64
2022/10/30 07:14:21;;;;;;;8.70;6.50;;;13.50;99.90;;;;;;5017747;28;20018;-64
2022/10/30 07:16:47;;;;;;;10.82;7.57;;;13.50;99.90;;;;;;5020572;28;20017;-63
2022/10/30 07:19:12;;;;;;;10.57;8.07;;;13.50;99.90;;;;;;5018153;28;20025;-64
2022/10/30 07:21:38;;;;;;;16.15;10.80;;;13.60;99.90;;;;;;5022640;28;20100;-64
2022/10/30 07:24:04;;;;;;;18.52;11.32;;;13.60;99.90;;;;;;5018643;28;20109;-63
2022/10/30 07:26:32;;;;;;;15.55;9.85;;;13.60;99.90;;;;;;5016078;28;20045;-63
2022/10/30 07:28:58;;;;;;;17.02;10.35;;;13.60;99.90;;;;;;5016938;28;20381;-63
2022/10/30 07:31:23;;;;;;;14.43;9.95;;;13.60;99.90;;;;;;5024920;28;20500;-63
2022/10/30 07:33:49;;;;;;;14.27;8.82;;;13.60;99.90;;;;;;5026939;28;20025;-63
2022/10/30 07:36:14;;;;;;;9.82;7.25;;;13.70;99.90;;;;;;5030729;28;20481;-64
2022/10/30 07:38:40;;;;;;;9.38;6.70;;;13.80;99.90;;;;;;5022924;28;20025;-63
2022/10/30 07:41:05;;;;;;;10.23;6.07;;;13.80;99.90;;;;;;5023056;28;20469;-63
2022/10/30 07:43:31;;;;;;;8.68;6.63;;;13.90;99.90;;;;;;5020754;28;20560;-64
2022/10/30 07:45:56;;;;;;;9.75;6.38;;;14.00;99.90;;;;;;5030638;28;20038;-64
2022/10/30 07:48:22;;;;;;;12.07;7.38;;;14.00;99.90;;;;;;5022318;28;20026;-64
2022/10/30 07:50:47;;;;;;;14.75;9.90;;;14.00;99.90;;;;;;5018955;28;20022;-63
2022/10/30 07:53:13;;;;;;;11.90;8.38;;;14.00;99.90;;;;;;5031442;28;20025;-63
2022/10/30 07:55:40;;;;;;;12.57;7.68;;;14.00;99.90;;;;;;5015837;28;20053;-64
2022/10/30 07:58:06;;;;;;;9.27;7.68;;;14.10;99.90;;;;;;5024867;28;20061;-63
2022/10/30 08:00:31;;;;;;;16.58;10.80;;;14.20;99.90;;;;;;5019728;28;20048;-63
2022/10/30 08:02:57;;;;;;;17.30;11.38;;;14.20;99.90;;;;;;5032365;28;20030;-64
2022/10/30 08:05:22;;;;;;;21.60;13.10;;;14.20;99.90;;;;;;5016294;28;20083;-64
2022/10/30 08:07:48;;;;;;;18.85;12.60;;;14.20;99.90;;;;;;5020492;28;20025;-63
2022/10/30 08:10:13;;;;;;;17.25;12.73;;;14.20;99.90;;;;;;5013386;28;20040;-63
2022/10/30 08:12:40;;;;;;;20.00;13.27;;;14.20;99.90;;;;;;5029600;28;20030;-64
2022/10/30 08:15:07;;;;;;;17.10;12.32;;;14.20;99.90;;;;;;5030984;28;20044;-64
2022/10/30 08:17:32;;;;;;;23.20;14.02;;;14.20;99.90;;;;;;5018117;28;20014;-63
2022/10/30 08:19:58;;;;;;;20.08;13.82;;;14.20;99.90;;;;;;5030787;28;20028;-64
2022/10/30 08:22:31;;;;;;;21.83;13.90;;;14.30;99.90;;;;;;5031698;28;20030;-64
2022/10/30 08:24:56;;;;;;;18.23;13.50;;;14.40;99.90;;;;;;5014069;28;20036;-63
2022/10/30 08:27:22;;;;;;;18.23;12.82;;;14.40;99.90;;;;;;5023979;28;20101;-64
2022/10/30 08:29:47;;;;;;;19.23;13.18;;;14.50;99.90;;;;;;5021300;28;20026;-63
2022/10/30 08:32:13;;;;;;;18.48;14.23;;;14.60;99.90;;;;;;5021925;28;20490;-64
2022/10/30 08:34:38;;;;;;;23.80;14.82;;;14.60;99.90;;;;;;5035485;28;20037;-64
2022/10/30 08:37:06;;;;;;;23.08;15.63;;;14.70;99.90;;;;;;5028134;28;20014;-63
2022/10/30 08:39:32;;;;;;;18.83;13.63;;;14.70;99.90;;;;;;5032979;28;20017;-64
2022/10/30 08:41:58;;;;;;;21.70;14.40;;;14.80;99.90;;;;;;5023334;28;20385;-63
2022/10/30 08:44:24;;;;;;;20.30;13.25;;;14.80;99.90;;;;;;5022060;28;20037;-63
2022/10/30 08:46:49;;;;;;;20.33;13.75;;;14.90;99.90;;;;;;5035616;28;20032;-63
2022/10/30 08:49:15;;;;;;;19.45;13.32;;;15.00;99.90;;;;;;5030623;28;20037;-64
2022/10/30 08:51:41;;;;;;;15.90;12.63;;;15.00;99.90;;;;;;5021247;28;20452;-63
2022/10/30 08:54:08;;;;;;;15.48;12.07;;;15.10;99.90;;;;;;5020316;28;20384;-64
2022/10/30 08:56:33;;;;;;;16.65;11.25;;;15.20;99.90;;;;;;5021597;28;20028;-63
2022/10/30 08:58:59;;;;;;;12.98;8.80;;;15.30;99.90;;;;;;5022670;28;20030;-64
2022/10/30 09:01:24;;;;;;;15.85;11.32;;;15.40;99.90;;;;;;5023005;28;20018;-64
2022/10/30 09:03:50;;;;;;;18.67;12.98;;;15.60;99.90;;;;;;5023924;28;20469;-64
2022/10/30 09:06:17;;;;;;;17.95;13.07;;;15.60;99.90;;;;;;5031212;28;20037;-64
2022/10/30 09:08:44;;;;;;;16.77;12.98;;;15.70;99.90;;;;;;5035305;28;20032;-64
2022/10/30 09:11:16;;;;;;;18.27;12.02;;;15.80;99.90;;;;;;5032741;28;20217;-64
2022/10/30 09:13:41;;;;;;;19.02;12.95;;;15.90;99.90;;;;;;5035111;28;20030;-64
2022/10/30 09:16:10;;;;;;;15.98;11.63;;;16.00;99.90;;;;;;5034731;28;20500;-64
2022/10/30 09:18:36;;;;;;;18.67;13.02;;;16.10;99.90;;;;;;5024687;28;20061;-64
2022/10/30 09:21:01;;;;;;;20.65;12.57;;;16.20;99.90;;;;;;5022576;28;20049;-64
2022/10/30 09:23:27;;;;;;;17.40;13.07;;;16.30;99.90;;;;;;5022010;28;20033;-64
2022/10/30 09:25:56;;;;;;;19.75;12.68;;;16.40;99.90;;;;;;5021381;28;20475;-64
2022/10/30 09:28:21;;;;;;;16.02;12.98;;;16.50;99.90;;;;;;5034886;28;20080;-64
2022/10/30 09:30:51;;;;;;;15.55;12.25;;;16.50;99.90;;;;;;5034361;28;20030;-64
2022/10/30 09:33:17;;;;;;;17.77;12.85;;;16.60;99.90;;;;;;5034585;28;20014;-64
2022/10/30 09:35:44;;;;;;;19.83;12.00;;;16.80;99.90;;;;;;5034047;28;20037;-64
2022/10/30 09:38:10;;;;;;;17.10;12.10;;;16.90;99.90;;;;;;5034415;28;20029;-64
2022/10/30 09:41:05;;;;;;;19.80;13.15;;;17.10;99.90;;;;;;5033644;28;20022;-64
2022/10/30 09:43:33;;;;;;;13.25;11.10;;;17.40;99.90;;;;;;5024181;28;20021;-64
2022/10/30 09:46:26;;;;;;;19.48;12.77;;;17.50;99.90;;;;;;5031350;28;20124;-64
2022/10/30 09:49:13;;;;;;;13.35;10.95;;;17.80;99.90;;;;;;5028275;28;20026;-64
2022/10/30 09:51:41;;;;;;;14.48;10.13;;;18.00;99.90;;;;;;5032155;28;20108;-64
2022/10/30 09:54:37;;;;;;;14.80;9.80;;;18.30;99.90;;;;;;5029972;28;20017;-64
2022/10/30 09:57:33;;;;;;;20.63;11.30;;;18.60;99.90;;;;;;5006600;28;20037;-64
2022/10/30 10:00:02;;;;;;;15.57;11.02;;;19.40;99.70;;;;;;5034084;28;20021;-64
2022/10/30 10:02:52;;;;;;;12.37;9.53;;;19.60;98.30;;;;;;5033207;28;20014;-64
2022/10/30 10:05:28;;;;;;;10.63;7.32;;;19.80;97.50;;;;;;5032330;28;20486;-64
2022/10/30 10:08:07;;;;;;;9.05;6.47;;;20.50;97.70;;;;;;5030193;28;20099;-64
2022/10/30 10:10:43;;;;;;;;;;;21.80;96.80;;;;;;5023549;28;20017;-64
2022/10/30 10:13:37;;;;;;;9.77;5.03;;;23.30;96.10;;;;;;5027253;28;19966;-64
2022/10/30 10:16:13;;;;;;;9.55;5.15;;;24.50;93.30;;;;;;5030998;28;20479;-65
2022/10/30 10:18:47;;;;;;;11.60;5.75;;;24.90;91.70;;;;;;5033966;28;20034;-64
2022/10/30 10:21:22;;;;;;;9.50;7.70;;;24.80;91.00;;;;;;5033423;28;20037;-64
2022/10/30 10:23:54;;;;;;;14.70;9.10;;;24.30;90.20;;;;;;5030323;28;20044;-64
2022/10/30 10:27:06;;;;;;;11.02;7.57;;;23.50;87.60;;;;;;5020075;28;20036;-64
2022/10/30 10:30:02;;;;;;;9.15;6.22;;;23.10;89.90;;;;;;4991172;28;20030;-64
2022/10/30 10:32:30;;;;;;;10.80;5.88;;;23.30;90.30;;;;;;4991819;28;20030;-64
2022/10/30 10:35:15;;;;;;;8.85;6.55;;;23.80;90.00;;;;;;5018212;28;20045;-64
2022/10/30 10:37:40;;;;;;;6.35;5.57;;;25.00;87.40;;;;;;5033516;28;20022;-64
2022/10/30 10:40:23;;;;;;;10.98;7.95;;;27.30;82.20;;;;;;5033476;28;20396;-64
2022/10/30 10:43:00;;;;;;;10.45;6.45;;;28.80;72.10;;;;;;5033171;28;20124;-65
2022/10/30 10:45:39;;;;;;;11.15;7.50;;;29.60;67.70;;;;;;5014821;28;20568;-65
2022/10/30 10:48:13;;;;;;;11.07;6.78;;;29.70;62.00;;;;;;5013749;28;20084;-65
2022/10/30 10:50:48;;;;;;;12.50;7.00;;;29.70;61.30;;;;;;5021714;28;20080;-65
2022/10/30 10:53:22;;;;;;;11.50;7.57;;;29.40;60.70;;;;;;5018664;28;20026;-65
2022/10/30 10:55:51;;;;;;;9.05;5.85;;;29.70;59.70;;;;;;5020167;28;20025;-65
2022/10/30 10:58:31;;;;;;;10.00;6.93;;;30.00;59.70;;;;;;5025588;28;20018;-65
2022/10/30 11:00:57;;;;;;;10.52;7.15;;;30.00;57.50;;;;;;5020379;28;20097;-65
2022/10/30 11:03:58;;;;;;;12.05;6.90;;;29.90;56.90;;;;;;5021150;28;20017;-65
2022/10/30 11:06:33;;;;;;;11.18;7.05;;;30.60;56.20;;;;;;5020861;28;20053;-65
2022/10/30 11:09:13;;;;;;;9.32;6.35;;;30.70;55.30;;;;;;5018768;28;20197;-65
2022/10/30 11:11:39;;;;;;;9.43;5.85;;;30.40;55.30;;;;;;5024330;28;20306;-65
2022/10/30 11:14:27;;;;;;;8.88;6.88;;;30.50;55.20;;;;;;5017483;28;20393;-65
2022/10/30 11:17:20;;;;;;;9.20;6.57;;;30.70;55.20;;;;;;5043210;28;20020;-65
2022/10/30 11:19:50;;;;;;;9.95;7.20;;;31.00;54.30;;;;;;5021842;28;20025;-65
2022/10/30 11:22:24;;;;;;;10.65;7.53;;;30.60;53.50;;;;;;5019342;28;20093;-65
2022/10/30 11:24:50;;;;;;;7.97;4.60;;;30.40;53.90;;;;;;5017563;28;20504;-65
2022/10/30 11:27:22;;;;;;;10.77;6.25;;;30.80;55.30;;;;;;5019673;28;20026;-65
2022/10/30 11:29:56;;;;;;;11.88;5.95;;;31.60;53.50;;;;;;5015141;28;20021;-65
2022/10/30 11:32:26;;;;;;;10.75;6.90;;;32.30;52.20;;;;;;5024796;28;20478;-65
2022/10/30 11:35:09;;;;;;;8.07;5.40;;;32.20;51.40;;;;;;5021493;28;20026;-65
2022/10/30 11:37:40;;;;;;;7.93;5.55;;;32.60;50.80;;;;;;5018765;28;20021;-65
2022/10/30 11:40:11;;;;;;;7.47;5.68;;;33.00;50.40;;;;;;5024113;28;20022;-65
2022/10/30 11:43:02;;;;;;;12.73;7.70;;;33.10;49.50;;;;;;5016764;28;20022;-65
2022/10/30 11:45:31;;;;;;;9.65;6.38;;;33.20;48.90;;;;;;5012489;28;20104;-65
2022/10/30 11:47:58;;;;;;;13.73;8.23;;;33.30;48.40;;;;;;5032249;28;20074;-65
2022/10/30 11:50:27;;;;;;;8.23;7.28;;;32.60;48.90;;;;;;5019111;28;20033;-65
2022/10/30 11:52:56;;;;;;;9.93;6.32;;;32.30;49.40;;;;;;5032466;28;20030;-65
2022/10/30 11:55:40;;;;;;;9.82;6.55;;;31.70;50.10;;;;;;5018999;28;20030;-65
2022/10/30 11:58:09;;;;;;;10.88;7.30;;;31.40;51.00;;;;;;5020247;28;20026;-65
2022/10/30 12:00:36;;;;;;;10.38;6.70;;;30.40;51.50;;;;;;5031831;28;20021;-65
2022/10/30 12:03:02;;;;;;;9.30;6.82;;;29.70;53.20;;;;;;5032118;28;20497;-65
2022/10/30 12:05:29;;;;;;;11.68;8.68;;;29.50;54.00;;;;;;5034558;28;20025;-65
2022/10/30 12:08:16;;;;;;;7.60;6.45;;;29.40;54.40;;;;;;5036089;28;20473;-65
2022/10/30 12:10:56;;;;;;;8.40;7.07;;;29.90;54.00;;;;;;5036360;28;20053;-65
2022/10/30 12:13:23;;;;;;;11.75;6.63;;;30.30;53.60;;;;;;5036033;28;20025;-65
2022/10/30 12:16:02;;;;;;;8.73;6.70;;;30.20;53.30;;;;;;5032325;28;20025;-65
2022/10/30 12:18:29;;;;;;;9.07;7.93;;;30.10;53.70;;;;;;5022720;28;20026;-65
2022/10/30 12:20:56;;;;;;;10.75;7.80;;;29.70;53.90;;;;;;5020661;28;20122;-65
2022/10/30 12:23:24;;;;;;;11.25;8.07;;;29.30;54.90;;;;;;5019149;28;20091;-64
2022/10/30 12:26:09;;;;;;;11.60;8.38;;;30.00;54.60;;;;;;5018432;28;20088;-64
2022/10/30 12:28:35;;;;;;;8.80;7.13;;;30.70;52.90;;;;;;5036078;28;20111;-64
2022/10/30 12:31:28;;;;;;;7.35;5.32;;;31.00;52.50;;;;;;5022573;28;20048;-64
2022/10/30 12:34:16;;;;;;;9.75;7.63;;;31.00;52.60;;;;;;5035332;28;20026;-65
2022/10/30 12:36:52;;;;;;;9.95;7.47;;;30.20;53.00;;;;;;5035809;28;20030;-64
2022/10/30 12:39:27;;;;;;;10.10;7.63;;;29.60;54.10;;;;;;5035105;28;20021;-64
2022/10/30 12:41:57;;;;;;;12.38;8.73;;;29.00;55.30;;;;;;5035279;28;20120;-64
2022/10/30 12:44:35;;;;;;;11.23;8.77;;;28.30;56.90;;;;;;5022267;28;20128;-64
2022/10/30 12:47:32;;;;;;;11.90;8.95;;;27.70;58.00;;;;;;5034965;28;20026;-64
2022/10/30 12:50:02;;;;;;;18.90;10.38;;;27.20;59.40;;;;;;5029792;28;20151;-65
2022/10/30 12:52:36;;;;;;;12.15;9.52;;;26.70;60.60;;;;;;5034760;28;20555;-65